Time;durP1;ratioP1;P1;durP2;ratioP2;P2;SDS_P1;SDS_P2;PMS_P1;PMS_P2;Temp;Humidity;BMP_temperature;BMP_pressure;BME280_temperature;BME280_humidity;BME280_pressure;Samples;Min_cycle;Max_cycle;Signal;HPM_P1;HPM_P2
2023/05/04 00:02:44;;;;;;;10.47;4.60;;;;;;;;;;21163569;28;20206;-71
2023/05/04 00:12:47;;;;;;;10.60;4.90;;;;;;;;;;21162834;28;20232;-72
2023/05/04 00:22:49;;;;;;;9.53;4.63;;;;;;;;;;21162713;28;20669;-71
2023/05/04 00:32:51;;;;;;;6.77;4.87;;;12.90;58.80;;;;;;21162075;28;20234;-71
2023/05/04 00:42:53;;;;;;;11.03;4.70;;;;;;;;;;21164347;28;20206;-72
2023/05/04 00:52:57;;;;;;;10.67;5.10;;;;;;;;;;21177815;28;20243;-71
2023/05/04 01:02:59;;;;;;;8.23;5.47;;;11.30;67.00;;;;;;21177017;28;20198;-71
2023/05/04 01:13:09;;;;;;;11.83;5.40;;;10.80;69.80;;;;;;21176225;28;20226;-72
2023/05/04 01:23:11;;;;;;;8.70;5.07;;;10.70;70.60;;;;;;21175611;28;20289;-71
2023/05/04 01:33:14;;;;;;;11.30;5.30;;;10.60;71.60;;;;;;21174859;28;20662;-72
2023/05/04 01:43:16;;;;;;;7.57;5.30;;;10.40;72.40;;;;;;21173868;28;20210;-72
2023/05/04 01:53:18;;;;;;;6.50;5.40;;;10.40;73.20;;;;;;21172213;28;20290;-71
2023/05/04 02:03:19;;;;;;;7.73;5.53;;;10.10;73.50;;;;;;21172787;28;20202;-71
2023/05/04 02:13:21;;;;;;;7.17;5.57;;;10.10;74.20;;;;;;21171674;28;20630;-70
2023/05/04 02:23:23;;;;;;;7.17;5.30;;;9.90;75.30;;;;;;21170930;28;20246;-70
2023/05/04 02:33:25;;;;;;;11.20;6.23;;;9.90;76.50;;;;;;21170189;28;20238;-70
2023/05/04 02:43:26;;;;;;;9.60;5.60;;;9.70;77.10;;;;;;21168918;28;20212;-71
2023/05/04 02:53:28;;;;;;;9.13;5.87;;;9.60;77.60;;;;;;21167723;28;20267;-71
2023/05/04 03:03:30;;;;;;;8.67;5.63;;;9.50;78.10;;;;;;21167536;28;20204;-68
2023/05/04 03:13:31;;;;;;;9.60;6.20;;;9.30;78.10;;;;;;21165475;28;20271;-69
2023/05/04 03:23:33;;;;;;;9.00;6.07;;;9.30;79.00;;;;;;21165884;28;20205;-72
2023/05/04 03:33:35;;;;;;;12.37;5.90;;;9.30;79.50;;;;;;21165788;28;20241;-72
2023/05/04 03:43:36;;;;;;;8.80;6.00;;;9.20;80.40;;;;;;21164982;28;20206;-69
2023/05/04 03:53:38;;;;;;;15.27;5.90;;;9.10;81.10;;;;;;21163813;28;20239;-69
2023/05/04 04:03:40;;;;;;;15.00;6.47;;;8.90;81.50;;;;;;21163783;28;20209;-69
2023/05/04 04:13:41;;;;;;;11.60;6.40;;;8.90;82.10;;;;;;21162835;28;20268;-69
2023/05/04 04:23:43;;;;;;;12.67;5.80;;;8.80;82.50;;;;;;21175496;28;20261;-70
2023/05/04 04:33:46;;;;;;;7.60;5.73;;;8.80;82.70;;;;;;21179675;28;20234;-69
2023/05/04 04:43:48;;;;;;;12.97;6.20;;;9.00;83.00;;;;;;21160837;28;20201;-68
2023/05/04 04:53:50;;;;;;;20.30;6.83;;;9.00;83.50;;;;;;21177674;28;20250;-68
2023/05/04 05:03:51;;;;;;;12.93;7.20;;;9.30;83.70;;;;;;21177152;28;20249;-67
2023/05/04 05:13:53;;;;;;;20.67;6.93;;;9.80;83.10;;;;;;21176030;28;20229;-69
2023/05/04 05:23:55;;;;;;;23.83;6.93;;;10.00;81.40;;;;;;21155786;28;20267;-69
2023/05/04 05:33:56;;;;;;;14.43;8.10;;;10.10;81.80;;;;;;21173718;28;20250;-69
2023/05/04 05:43:58;;;;;;;28.37;9.27;;;10.20;81.50;;;;;;21173110;28;20257;-70
2023/05/04 05:54:00;;;;;;;24.57;8.30;;;10.50;81.60;;;;;;21171950;28;20578;-68
2023/05/04 06:04:02;;;;;;;14.40;8.00;;;10.80;81.20;;;;;;21172160;28;20678;-68
2023/05/04 06:14:04;;;;;;;18.83;7.57;;;11.20;80.60;;;;;;21170892;28;20235;-69
2023/05/04 06:24:06;;;;;;;13.70;7.37;;;11.50;79.50;;;;;;21170396;28;20203;-69
2023/05/04 06:34:07;;;;;;;11.57;7.00;;;11.90;78.50;;;;;;21169341;28;20237;-70
2023/05/04 06:44:09;;;;;;;16.23;7.60;;;12.30;77.30;;;;;;21168259;28;20284;-69
2023/05/04 06:54:11;;;;;;;9.93;6.30;;;12.60;76.10;;;;;;21167604;28;20246;-70
2023/05/04 07:04:21;;;;;;;11.90;6.57;;;13.20;74.60;;;;;;21167207;28;20256;-71
2023/05/04 07:14:23;;;;;;;10.47;6.77;;;13.40;74.10;;;;;;21165929;28;20240;-71
2023/05/04 07:24:28;;;;;;;13.47;6.43;;;13.70;73.30;;;;;;21165310;28;20394;-71
2023/05/04 07:34:30;;;;;;;9.30;6.33;;;14.00;72.70;;;;;;21168433;28;20649;-72
2023/05/04 07:44:45;;;;;;;8.77;6.40;;;14.40;72.20;;;;;;21165426;28;20243;-71
2023/05/04 07:54:52;;;;;;;11.70;6.37;;;14.70;71.70;;;;;;21162374;28;20238;-70
2023/05/04 08:04:54;;;;;;;9.83;6.87;;;15.10;71.00;;;;;;21163011;28;20285;-70
2023/05/04 08:14:56;;;;;;;8.63;7.03;;;15.30;70.00;;;;;;21162111;28;20229;-70
2023/05/04 08:24:58;;;;;;;10.97;6.70;;;15.50;69.40;;;;;;21161576;28;20211;-69
2023/05/04 08:34:59;;;;;;;9.13;6.07;;;15.70;69.00;;;;;;21161629;28;20279;-71
2023/05/04 08:45:01;;;;;;;11.37;6.37;;;15.90;68.60;;;;;;21160933;28;20206;-68
2023/05/04 08:55:05;;;;;;;11.23;6.87;;;16.20;68.50;;;;;;21160026;28;20688;-70
2023/05/04 09:05:10;;;;;;;9.03;6.57;;;16.50;67.90;;;;;;21164560;28;20203;-70
2023/05/04 09:15:16;;;;;;;7.83;6.23;;;16.70;67.50;;;;;;21175712;28;20728;-72
2023/05/04 09:25:18;;;;;;;7.40;5.70;;;17.00;67.10;;;;;;21175066;28;20240;-70
2023/05/04 09:35:29;;;;;;;10.67;6.37;;;17.30;66.70;;;;;;21174735;28;20293;-70
2023/05/04 09:45:41;;;;;;;10.43;6.67;;;;;;;;;;21173387;28;20324;-70
2023/05/04 09:55:45;;;;;;;11.20;6.07;;;17.60;66.10;;;;;;21171938;28;20237;-68
2023/05/04 10:05:48;;;;;;;9.40;5.83;;;18.40;64.10;;;;;;21171747;28;20214;-69
2023/05/04 10:16:08;;;;;;;8.20;5.53;;;18.70;62.70;;;;;;21170280;28;20230;-70
2023/05/04 10:26:42;;;;;;;6.07;5.23;;;18.80;61.30;;;;;;21170282;28;20202;-70
2023/05/04 10:36:45;;;;;;;8.20;5.10;;;19.10;60.40;;;;;;21169410;28;20577;-69
2023/05/04 10:47:06;;;;;;;6.70;4.70;;;19.30;58.50;;;;;;21168318;28;20213;-69
2023/05/04 10:57:10;;;;;;;6.53;4.70;;;19.30;58.00;;;;;;21166960;28;20713;-69
2023/05/04 11:07:11;;;;;;;9.53;5.17;;;19.40;57.00;;;;;;21166079;28;20202;-70
2023/05/04 11:17:14;;;;;;;10.40;4.90;;;19.60;56.50;;;;;;21166021;28;20230;-69
2023/05/04 11:27:29;;;;;;;7.07;5.13;;;19.70;55.40;;;;;;21164353;28;20210;-70
2023/05/04 11:37:38;;;;;;;7.67;4.53;;;19.90;53.60;;;;;;21166465;28;20234;-72
2023/05/04 11:47:40;;;;;;;6.50;4.70;;;20.00;53.20;;;;;;21165652;28;20749;-70
2023/05/04 11:57:42;;;;;;;5.60;4.30;;;20.20;52.30;;;;;;21162856;28;20229;-70
2023/05/04 12:07:44;;;;;;;7.60;4.10;;;20.60;52.60;;;;;;21162302;28;20608;-71
2023/05/04 12:17:45;;;;;;;8.27;4.20;;;21.30;49.60;;;;;;21162596;28;20661;-72
2023/05/04 12:27:47;;;;;;;7.63;5.00;;;21.40;49.40;;;;;;21159999;28;20247;-69
2023/05/04 12:37:49;;;;;;;5.37;4.17;;;21.60;50.10;;;;;;21160335;28;20274;-70
2023/05/04 12:47:51;;;;;;;7.13;3.43;;;21.80;49.50;;;;;;21177852;28;20237;-69
2023/05/04 12:57:52;;;;;;;8.93;4.67;;;22.00;47.90;;;;;;21158914;28;20230;-71
2023/05/04 13:07:54;;;;;;;6.37;3.60;;;22.50;46.30;;;;;;21158560;28;20227;-72
2023/05/04 13:17:56;;;;;;;5.57;3.00;;;22.80;45.60;;;;;;21175866;28;20696;-73
2023/05/04 13:27:58;;;;;;;5.33;3.20;;;23.00;45.40;;;;;;21157172;28;20208;-73
2023/05/04 13:38:00;;;;;;;8.20;3.10;;;23.30;44.30;;;;;;21174069;28;20283;-71
2023/05/04 13:48:02;;;;;;;3.53;2.83;;;24.30;42.40;;;;;;21173057;28;20264;-73
2023/05/04 13:58:03;;;;;;;4.22;2.53;;;24.40;42.90;;;;;;21170703;28;20235;-72
2023/05/04 14:08:05;;;;;;;9.43;3.35;;;27.10;40.20;;;;;;21171298;28;20202;-73
2023/05/04 14:18:07;;;;;;;3.40;2.25;;;29.40;37.10;;;;;;21171072;28;20229;-74
2023/05/04 14:28:09;;;;;;;4.35;2.00;;;29.80;34.30;;;;;;21169728;28;20210;-71
2023/05/04 14:38:11;;;;;;;6.88;2.42;;;32.90;31.10;;;;;;21168904;28;20234;-70
2023/05/04 14:48:14;;;;;;;2.67;2.00;;;31.40;31.00;;;;;;21168443;28;20576;-71
2023/05/04 14:58:16;;;;;;;2.78;2.50;;;32.40;30.00;;;;;;21167628;28;20609;-75
2023/05/04 15:08:18;;;;;;;2.35;1.95;;;34.90;27.90;;;;;;21166746;28;20206;-72
2023/05/04 15:18:21;;;;;;;2.22;1.80;;;32.70;28.60;;;;;;21166806;28;20229;-73
2023/05/04 15:28:24;;;;;;;5.53;2.10;;;34.20;27.30;;;;;;21165332;28;20206;-71
2023/05/04 15:38:27;;;;;;;2.45;2.00;;;31.60;28.30;;;;;;21165546;28;20267;-74
2023/05/04 15:48:29;;;;;;;5.22;2.30;;;31.60;28.70;;;;;;21170407;28;20324;-70
2023/05/04 15:58:30;;;;;;;4.93;2.10;;;30.80;29.20;;;;;;21163117;28;20230;-70
2023/05/04 16:08:32;;;;;;;3.00;2.20;;;30.50;29.50;;;;;;21163100;28;20204;-70
2023/05/04 16:18:34;;;;;;;3.17;2.30;;;29.80;29.90;;;;;;21162439;28;20320;-72
2023/05/04 16:28:40;;;;;;;6.18;2.30;;;30.20;29.60;;;;;;21163856;27;20232;-65
2023/05/04 16:38:41;;;;;;;3.80;2.28;;;29.90;29.90;;;;;;21246417;28;20702;-68
2023/05/04 16:48:43;;;;;;;5.40;2.20;;;29.30;31.60;;;;;;21246387;28;20272;-71
2023/05/04 16:58:45;;;;;;;4.53;2.40;;;28.40;32.20;;;;;;21245720;28;20232;-67
2023/05/04 17:08:46;;;;;;;3.70;2.25;;;28.30;32.70;;;;;;21245044;27;20623;-67
2023/05/04 17:18:48;;;;;;;6.47;2.30;;;28.80;32.10;;;;;;21245549;28;20230;-70
2023/05/04 17:28:50;;;;;;;5.45;2.25;;;28.20;32.20;;;;;;21251031;27;20217;-71
2023/05/04 17:38:52;;;;;;;3.35;2.30;;;26.80;33.10;;;;;;21259094;27;20567;-71
2023/05/04 17:48:55;;;;;;;4.80;2.87;;;25.70;34.10;;;;;;21259346;27;20641;-67
2023/05/04 17:58:56;;;;;;;6.53;2.40;;;24.90;35.50;;;;;;21258273;27;20225;-69
2023/05/04 18:08:59;;;;;;;11.07;3.03;;;;;;;;;;21158288;28;20283;-71
2023/05/04 18:19:01;;;;;;;10.10;3.20;;;;;;;;;;21169816;28;20642;-73
2023/05/04 18:29:03;;;;;;;13.57;3.00;;;;;;;;;;21150911;28;20212;-71
2023/05/04 18:39:19;;;;;;;4.87;3.00;;;24.30;37.10;;;;;;21240774;27;20235;-76
2023/05/04 18:49:21;;;;;;;4.07;2.77;;;21.90;41.10;;;;;;21254029;27;20779;-73
2023/05/04 18:59:26;;;;;;;4.83;3.37;;;21.30;42.50;;;;;;21253652;27;20229;-72
2023/05/04 19:09:28;;;;;;;4.77;3.13;;;20.60;43.30;;;;;;21252426;27;20205;-72
2023/05/04 19:19:30;;;;;;;4.57;3.10;;;20.40;44.30;;;;;;21253208;27;20324;-72
2023/05/04 19:29:32;;;;;;;7.47;3.37;;;20.10;45.20;;;;;;21253781;27;20205;-73
2023/05/04 19:39:33;;;;;;;7.50;3.30;;;19.70;46.20;;;;;;21257259;27;20292;-72
2023/05/04 19:49:35;;;;;;;10.40;3.73;;;19.40;46.90;;;;;;21249223;27;20236;-71
2023/05/04 19:59:37;;;;;;;5.10;3.47;;;19.20;47.60;;;;;;21248763;27;20228;-71
2023/05/04 20:09:39;;;;;;;7.53;4.00;;;18.90;48.70;;;;;;21248547;27;20211;-67
2023/05/04 20:19:41;;;;;;;6.23;3.80;;;18.70;50.20;;;;;;21248559;28;20591;-68
2023/05/04 20:29:44;;;;;;;8.23;3.67;;;18.30;51.30;;;;;;21247446;28;20204;-68
2023/05/04 20:39:45;;;;;;;10.80;4.27;;;18.00;52.10;;;;;;21247152;28;20688;-69
2023/05/04 20:49:47;;;;;;;10.47;4.30;;;17.60;53.80;;;;;;21246996;28;20698;-71
2023/05/04 20:59:49;;;;;;;12.23;4.40;;;17.30;55.30;;;;;;21249226;27;20229;-71
2023/05/04 21:09:57;;;;;;;7.57;4.23;;;17.10;55.60;;;;;;21262354;27;20255;-72
2023/05/04 21:19:59;;;;;;;11.00;4.17;;;16.80;57.10;;;;;;21261381;27;20229;-72
2023/05/04 21:30:06;;;;;;;7.57;4.00;;;16.70;57.60;;;;;;21260753;27;20255;-72
2023/05/04 21:40:09;;;;;;;9.40;4.30;;;16.40;58.70;;;;;;21259551;27;20236;-72
2023/05/04 21:50:10;;;;;;;6.80;4.37;;;16.20;60.20;;;;;;21256533;27;20703;-71
2023/05/04 22:00:16;;;;;;;6.33;4.60;;;15.90;60.80;;;;;;21258633;27;20700;-71
2023/05/04 22:10:18;;;;;;;7.47;4.43;;;15.80;61.60;;;;;;21238428;27;20563;-71
2023/05/04 22:20:22;;;;;;;7.87;4.73;;;15.60;62.60;;;;;;21256301;27;20231;-71
2023/05/04 22:30:27;;;;;;;9.60;4.37;;;15.30;63.50;;;;;;21256144;27;20217;-71
2023/05/04 22:40:28;;;;;;;9.00;5.03;;;15.20;64.60;;;;;;21255065;27;20276;-71
2023/05/04 22:50:30;;;;;;;8.40;4.63;;;15.10;65.60;;;;;;21254744;27;20248;-71
2023/05/04 23:00:32;;;;;;;9.27;4.57;;;15.00;66.50;;;;;;21254199;27;20238;-71
2023/05/04 23:10:34;;;;;;;10.47;5.17;;;14.90;66.70;;;;;;21251919;27;20693;-71
2023/05/04 23:20:36;;;;;;;11.63;4.70;;;14.80;67.80;;;;;;21251724;27;20233;-71
2023/05/04 23:30:37;;;;;;;8.73;4.87;;;14.60;69.00;;;;;;21251375;27;20569;-70
2023/05/04 23:40:39;;;;;;;8.10;4.70;;;14.40;69.60;;;;;;21250184;27;20232;-70
2023/05/04 23:50:51;;;;;;;13.50;4.73;;;14.30;70.30;;;;;;21249493;27;20657;-70
